sensor_id;sensor_type;location;lat;lon;timestamp;P1;durP1;ratioP1;P2;durP2;ratioP2
76865;SDS011;66647;52.124;5.416;2023-05-23T00:03:32;9.25;;;4.03;;
76865;SDS011;66647;52.124;5.416;2023-05-23T00:06:00;13.50;;;4.72;;
76865;SDS011;66647;52.124;5.416;2023-05-23T00:08:28;11.15;;;4.07;;
76865;SDS011;66647;52.124;5.416;2023-05-23T00:10:55;12.30;;;3.65;;
76865;SDS011;66647;52.124;5.416;2023-05-23T00:13:22;13.68;;;3.97;;
76865;SDS011;66647;52.124;5.416;2023-05-23T00:15:52;14.32;;;4.10;;
76865;SDS011;66647;52.124;5.416;2023-05-23T00:18:18;17.52;;;5.07;;
76865;SDS011;66647;52.124;5.416;2023-05-23T00:20:45;14.70;;;4.47;;
76865;SDS011;66647;52.124;5.416;2023-05-23T00:23:12;12.13;;;4.32;;
76865;SDS011;66647;52.124;5.416;2023-05-23T00:25:45;13.07;;;3.97;;
76865;SDS011;66647;52.124;5.416;2023-05-23T00:28:18;18.00;;;4.93;;
76865;SDS011;66647;52.124;5.416;2023-05-23T00:30:45;13.73;;;4.13;;
76865;SDS011;66647;52.124;5.416;2023-05-23T00:33:51;14.15;;;3.67;;
76865;SDS011;66647;52.124;5.416;2023-05-23T00:36:29;10.45;;;3.63;;
76865;SDS011;66647;52.124;5.416;2023-05-23T00:39:03;8.20;;;3.38;;
76865;SDS011;66647;52.124;5.416;2023-05-23T00:41:30;9.88;;;4.20;;
76865;SDS011;66647;52.124;5.416;2023-05-23T00:43:57;9.82;;;4.38;;
76865;SDS011;66647;52.124;5.416;2023-05-23T00:46:25;8.50;;;3.67;;
76865;SDS011;66647;52.124;5.416;2023-05-23T00:49:08;7.70;;;2.50;;
76865;SDS011;66647;52.124;5.416;2023-05-23T00:54:03;10.18;;;2.75;;
76865;SDS011;66647;52.124;5.416;2023-05-23T00:56:34;11.07;;;2.70;;
76865;SDS011;66647;52.124;5.416;2023-05-23T00:59:08;9.70;;;3.08;;
76865;SDS011;66647;52.124;5.416;2023-05-23T01:01:34;7.55;;;2.58;;
76865;SDS011;66647;52.124;5.416;2023-05-23T01:04:02;7.53;;;2.05;;
76865;SDS011;66647;52.124;5.416;2023-05-23T01:06:30;7.35;;;2.17;;
76865;SDS011;66647;52.124;5.416;2023-05-23T01:09:07;9.70;;;2.13;;
76865;SDS011;66647;52.124;5.416;2023-05-23T01:11:42;7.93;;;2.45;;
76865;SDS011;66647;52.124;5.416;2023-05-23T01:14:17;10.40;;;2.97;;
76865;SDS011;66647;52.124;5.416;2023-05-23T01:16:54;6.85;;;2.13;;
76865;SDS011;66647;52.124;5.416;2023-05-23T01:19:47;7.82;;;2.28;;
76865;SDS011;66647;52.124;5.416;2023-05-23T01:22:37;8.35;;;2.15;;
76865;SDS011;66647;52.124;5.416;2023-05-23T01:28:27;6.80;;;2.20;;
76865;SDS011;66647;52.124;5.416;2023-05-23T01:31:13;7.40;;;2.15;;
76865;SDS011;66647;52.124;5.416;2023-05-23T01:33:42;7.15;;;1.92;;
76865;SDS011;66647;52.124;5.416;2023-05-23T01:36:09;7.97;;;2.38;;
76865;SDS011;66647;52.124;5.416;2023-05-23T01:38:53;5.40;;;2.28;;
76865;SDS011;66647;52.124;5.416;2023-05-23T01:44:16;8.90;;;2.50;;
76865;SDS011;66647;52.124;5.416;2023-05-23T01:46:47;8.15;;;2.38;;
76865;SDS011;66647;52.124;5.416;2023-05-23T01:49:15;7.70;;;2.13;;
76865;SDS011;66647;52.124;5.416;2023-05-23T01:51:44;7.32;;;1.88;;
76865;SDS011;66647;52.124;5.416;2023-05-23T01:54:12;6.70;;;1.75;;
76865;SDS011;66647;52.124;5.416;2023-05-23T01:56:42;7.15;;;2.22;;
76865;SDS011;66647;52.124;5.416;2023-05-23T01:59:10;8.05;;;1.85;;
76865;SDS011;66647;52.124;5.416;2023-05-23T02:01:44;6.13;;;2.17;;
76865;SDS011;66647;52.124;5.416;2023-05-23T02:04:14;11.88;;;3.55;;
76865;SDS011;66647;52.124;5.416;2023-05-23T02:06:41;7.88;;;1.95;;
76865;SDS011;66647;52.124;5.416;2023-05-23T02:09:11;6.93;;;2.03;;
76865;SDS011;66647;52.124;5.416;2023-05-23T02:11:45;9.35;;;2.28;;
76865;SDS011;66647;52.124;5.416;2023-05-23T02:14:12;11.52;;;2.78;;
76865;SDS011;66647;52.124;5.416;2023-05-23T02:16:38;9.40;;;2.15;;
76865;SDS011;66647;52.124;5.416;2023-05-23T02:19:05;7.95;;;2.35;;
76865;SDS011;66647;52.124;5.416;2023-05-23T02:21:32;9.38;;;2.53;;
76865;SDS011;66647;52.124;5.416;2023-05-23T02:24:01;5.55;;;1.83;;
76865;SDS011;66647;52.124;5.416;2023-05-23T02:26:29;8.48;;;2.47;;
76865;SDS011;66647;52.124;5.416;2023-05-23T02:28:59;11.90;;;2.05;;
76865;SDS011;66647;52.124;5.416;2023-05-23T02:31:26;9.45;;;2.03;;
76865;SDS011;66647;52.124;5.416;2023-05-23T02:33:53;7.05;;;2.25;;
76865;SDS011;66647;52.124;5.416;2023-05-23T02:36:20;8.35;;;2.33;;
76865;SDS011;66647;52.124;5.416;2023-05-23T02:38:47;7.13;;;1.67;;
76865;SDS011;66647;52.124;5.416;2023-05-23T02:41:13;7.45;;;2.08;;
76865;SDS011;66647;52.124;5.416;2023-05-23T02:43:40;7.40;;;1.85;;
76865;SDS011;66647;52.124;5.416;2023-05-23T02:46:07;9.85;;;2.10;;
76865;SDS011;66647;52.124;5.416;2023-05-23T02:48:36;11.63;;;2.20;;
76865;SDS011;66647;52.124;5.416;2023-05-23T02:53:57;8.35;;;1.83;;
76865;SDS011;66647;52.124;5.416;2023-05-23T02:56:25;11.90;;;2.40;;
76865;SDS011;66647;52.124;5.416;2023-05-23T02:58:53;9.15;;;2.00;;
76865;SDS011;66647;52.124;5.416;2023-05-23T03:01:20;8.65;;;2.85;;
76865;SDS011;66647;52.124;5.416;2023-05-23T03:03:47;9.57;;;2.25;;
76865;SDS011;66647;52.124;5.416;2023-05-23T03:09:09;10.27;;;1.65;;
76865;SDS011;66647;52.124;5.416;2023-05-23T03:11:38;8.75;;;2.65;;
76865;SDS011;66647;52.124;5.416;2023-05-23T03:14:05;7.35;;;1.98;;
76865;SDS011;66647;52.124;5.416;2023-05-23T03:16:32;10.60;;;2.08;;
76865;SDS011;66647;52.124;5.416;2023-05-23T03:18:59;8.80;;;1.88;;
76865;SDS011;66647;52.124;5.416;2023-05-23T03:21:29;11.90;;;2.65;;
76865;SDS011;66647;52.124;5.416;2023-05-23T03:23:57;10.35;;;1.90;;
76865;SDS011;66647;52.124;5.416;2023-05-23T03:26:49;8.05;;;2.08;;
76865;SDS011;66647;52.124;5.416;2023-05-23T03:29:16;9.90;;;2.65;;
76865;SDS011;66647;52.124;5.416;2023-05-23T03:31:43;13.07;;;3.03;;
76865;SDS011;66647;52.124;5.416;2023-05-23T03:34:12;13.60;;;2.80;;
76865;SDS011;66647;52.124;5.416;2023-05-23T03:36:48;15.23;;;3.45;;
76865;SDS011;66647;52.124;5.416;2023-05-23T03:39:16;12.98;;;2.75;;
76865;SDS011;66647;52.124;5.416;2023-05-23T03:41:43;12.18;;;2.53;;
76865;SDS011;66647;52.124;5.416;2023-05-23T03:44:10;12.13;;;2.90;;
76865;SDS011;66647;52.124;5.416;2023-05-23T03:46:49;14.32;;;4.00;;
76865;SDS011;66647;52.124;5.416;2023-05-23T03:52:08;14.57;;;3.03;;
76865;SDS011;66647;52.124;5.416;2023-05-23T03:54:35;14.30;;;3.85;;
76865;SDS011;66647;52.124;5.416;2023-05-23T03:57:01;11.60;;;2.65;;
76865;SDS011;66647;52.124;5.416;2023-05-23T03:59:29;10.82;;;2.83;;
76865;SDS011;66647;52.124;5.416;2023-05-23T04:01:56;16.27;;;3.58;;
76865;SDS011;66647;52.124;5.416;2023-05-23T04:04:26;11.82;;;2.30;;
76865;SDS011;66647;52.124;5.416;2023-05-23T04:06:54;15.10;;;4.20;;
76865;SDS011;66647;52.124;5.416;2023-05-23T04:09:21;13.30;;;2.90;;
76865;SDS011;66647;52.124;5.416;2023-05-23T04:11:50;10.13;;;2.13;;
76865;SDS011;66647;52.124;5.416;2023-05-23T04:14:18;11.35;;;2.72;;
76865;SDS011;66647;52.124;5.416;2023-05-23T04:19:15;8.93;;;2.20;;
76865;SDS011;66647;52.124;5.416;2023-05-23T04:21:42;11.27;;;2.33;;
76865;SDS011;66647;52.124;5.416;2023-05-23T04:24:12;10.65;;;2.35;;
76865;SDS011;66647;52.124;5.416;2023-05-23T04:26:40;15.70;;;3.33;;
76865;SDS011;66647;52.124;5.416;2023-05-23T04:29:19;15.18;;;2.13;;
76865;SDS011;66647;52.124;5.416;2023-05-23T04:31:46;11.45;;;1.73;;
76865;SDS011;66647;52.124;5.416;2023-05-23T04:34:13;12.32;;;1.65;;
76865;SDS011;66647;52.124;5.416;2023-05-23T04:36:40;13.20;;;1.70;;
76865;SDS011;66647;52.124;5.416;2023-05-23T04:39:09;11.77;;;1.27;;
76865;SDS011;66647;52.124;5.416;2023-05-23T04:41:47;11.05;;;2.78;;
76865;SDS011;66647;52.124;5.416;2023-05-23T04:44:36;10.13;;;1.63;;
76865;SDS011;66647;52.124;5.416;2023-05-23T04:47:13;11.75;;;1.55;;
76865;SDS011;66647;52.124;5.416;2023-05-23T04:49:58;11.52;;;0.85;;
76865;SDS011;66647;52.124;5.416;2023-05-23T04:52:25;9.07;;;0.88;;
76865;SDS011;66647;52.124;5.416;2023-05-23T04:54:53;8.02;;;0.93;;
76865;SDS011;66647;52.124;5.416;2023-05-23T04:57:56;8.40;;;1.13;;
76865;SDS011;66647;52.124;5.416;2023-05-23T05:00:22;7.20;;;1.40;;
76865;SDS011;66647;52.124;5.416;2023-05-23T05:02:49;6.10;;;1.05;;
76865;SDS011;66647;52.124;5.416;2023-05-23T05:05:16;10.20;;;1.70;;
76865;SDS011;66647;52.124;5.416;2023-05-23T05:07:43;11.02;;;1.10;;
76865;SDS011;66647;52.124;5.416;2023-05-23T05:10:10;6.15;;;1.17;;
76865;SDS011;66647;52.124;5.416;2023-05-23T05:12:43;12.40;;;1.30;;
76865;SDS011;66647;52.124;5.416;2023-05-23T05:15:12;7.53;;;1.17;;
76865;SDS011;66647;52.124;5.416;2023-05-23T05:17:40;10.95;;;1.58;;
76865;SDS011;66647;52.124;5.416;2023-05-23T05:20:10;8.75;;;1.83;;
76865;SDS011;66647;52.124;5.416;2023-05-23T05:22:37;10.85;;;1.83;;
76865;SDS011;66647;52.124;5.416;2023-05-23T05:25:10;6.82;;;1.00;;
76865;SDS011;66647;52.124;5.416;2023-05-23T05:27:38;12.15;;;1.52;;
76865;SDS011;66647;52.124;5.416;2023-05-23T05:30:08;10.20;;;1.35;;
76865;SDS011;66647;52.124;5.416;2023-05-23T05:32:46;7.13;;;1.02;;
76865;SDS011;66647;52.124;5.416;2023-05-23T05:35:15;9.23;;;1.10;;
76865;SDS011;66647;52.124;5.416;2023-05-23T05:40:11;7.90;;;1.15;;
76865;SDS011;66647;52.124;5.416;2023-05-23T05:42:41;8.20;;;0.90;;
76865;SDS011;66647;52.124;5.416;2023-05-23T05:45:09;8.38;;;1.00;;
76865;SDS011;66647;52.124;5.416;2023-05-23T05:47:37;8.00;;;1.13;;
76865;SDS011;66647;52.124;5.416;2023-05-23T05:50:05;10.45;;;1.13;;
76865;SDS011;66647;52.124;5.416;2023-05-23T05:52:33;9.48;;;1.75;;
76865;SDS011;66647;52.124;5.416;2023-05-23T05:55:26;7.57;;;1.17;;
76865;SDS011;66647;52.124;5.416;2023-05-23T05:57:53;10.25;;;1.25;;
76865;SDS011;66647;52.124;5.416;2023-05-23T06:00:21;7.15;;;0.93;;
76865;SDS011;66647;52.124;5.416;2023-05-23T06:05:50;10.35;;;1.73;;
76865;SDS011;66647;52.124;5.416;2023-05-23T06:08:17;9.65;;;1.42;;
76865;SDS011;66647;52.124;5.416;2023-05-23T06:10:44;10.57;;;1.73;;
76865;SDS011;66647;52.124;5.416;2023-05-23T06:13:11;9.32;;;1.70;;
76865;SDS011;66647;52.124;5.416;2023-05-23T06:15:40;11.15;;;1.77;;
76865;SDS011;66647;52.124;5.416;2023-05-23T06:18:07;8.70;;;1.30;;
76865;SDS011;66647;52.124;5.416;2023-05-23T06:20:34;9.63;;;1.42;;
76865;SDS011;66647;52.124;5.416;2023-05-23T06:23:05;7.70;;;1.40;;
76865;SDS011;66647;52.124;5.416;2023-05-23T06:25:31;8.70;;;1.55;;
76865;SDS011;66647;52.124;5.416;2023-05-23T06:27:58;9.23;;;1.35;;
76865;SDS011;66647;52.124;5.416;2023-05-23T06:30:25;7.93;;;1.10;;
76865;SDS011;66647;52.124;5.416;2023-05-23T06:32:54;8.55;;;1.35;;
76865;SDS011;66647;52.124;5.416;2023-05-23T06:35:21;8.65;;;1.13;;
76865;SDS011;66647;52.124;5.416;2023-05-23T06:37:57;8.00;;;1.77;;
76865;SDS011;66647;52.124;5.416;2023-05-23T06:40:23;9.40;;;1.55;;
76865;SDS011;66647;52.124;5.416;2023-05-23T06:43:04;7.90;;;1.42;;
76865;SDS011;66647;52.124;5.416;2023-05-23T06:45:50;9.55;;;1.50;;
76865;SDS011;66647;52.124;5.416;2023-05-23T06:48:17;9.80;;;1.85;;
76865;SDS011;66647;52.124;5.416;2023-05-23T06:50:44;6.35;;;1.08;;
76865;SDS011;66647;52.124;5.416;2023-05-23T06:53:12;9.45;;;1.48;;
76865;SDS011;66647;52.124;5.416;2023-05-23T06:55:40;6.97;;;1.50;;
76865;SDS011;66647;52.124;5.416;2023-05-23T06:58:10;8.27;;;1.60;;
76865;SDS011;66647;52.124;5.416;2023-05-23T07:00:36;7.85;;;0.70;;
76865;SDS011;66647;52.124;5.416;2023-05-23T07:03:26;6.50;;;0.45;;
76865;SDS011;66647;52.124;5.416;2023-05-23T07:08:49;5.65;;;0.55;;
76865;SDS011;66647;52.124;5.416;2023-05-23T07:11:16;6.60;;;0.57;;
76865;SDS011;66647;52.124;5.416;2023-05-23T07:13:48;4.40;;;0.80;;
76865;SDS011;66647;52.124;5.416;2023-05-23T07:16:33;5.95;;;0.47;;
76865;SDS011;66647;52.124;5.416;2023-05-23T07:19:04;10.02;;;0.63;;
76865;SDS011;66647;52.124;5.416;2023-05-23T07:21:34;8.93;;;0.45;;
76865;SDS011;66647;52.124;5.416;2023-05-23T07:24:01;6.30;;;0.65;;
76865;SDS011;66647;52.124;5.416;2023-05-23T07:26:28;8.07;;;0.28;;
76865;SDS011;66647;52.124;5.416;2023-05-23T07:28:55;4.13;;;0.82;;
76865;SDS011;66647;52.124;5.416;2023-05-23T07:31:22;12.23;;;0.73;;
76865;SDS011;66647;52.124;5.416;2023-05-23T07:33:51;7.40;;;0.40;;
76865;SDS011;66647;52.124;5.416;2023-05-23T07:36:26;4.93;;;0.40;;
76865;SDS011;66647;52.124;5.416;2023-05-23T07:38:54;6.13;;;0.65;;
76865;SDS011;66647;52.124;5.416;2023-05-23T07:41:21;10.98;;;0.43;;
76865;SDS011;66647;52.124;5.416;2023-05-23T07:43:48;9.00;;;0.60;;
76865;SDS011;66647;52.124;5.416;2023-05-23T07:46:15;11.88;;;0.52;;
76865;SDS011;66647;52.124;5.416;2023-05-23T07:48:42;8.35;;;0.55;;
76865;SDS011;66647;52.124;5.416;2023-05-23T07:51:10;9.45;;;0.73;;
76865;SDS011;66647;52.124;5.416;2023-05-23T07:53:38;11.27;;;0.50;;
76865;SDS011;66647;52.124;5.416;2023-05-23T07:56:09;7.38;;;0.60;;
76865;SDS011;66647;52.124;5.416;2023-05-23T07:58:38;5.47;;;0.22;;
76865;SDS011;66647;52.124;5.416;2023-05-23T08:01:06;6.43;;;0.57;;
76865;SDS011;66647;52.124;5.416;2023-05-23T08:03:53;8.45;;;0.70;;
76865;SDS011;66647;52.124;5.416;2023-05-23T08:06:32;11.25;;;0.50;;
76865;SDS011;66647;52.124;5.416;2023-05-23T08:09:03;9.02;;;0.98;;
76865;SDS011;66647;52.124;5.416;2023-05-23T08:14:27;7.70;;;1.20;;
76865;SDS011;66647;52.124;5.416;2023-05-23T08:17:22;8.00;;;0.22;;
76865;SDS011;66647;52.124;5.416;2023-05-23T08:19:51;9.02;;;0.40;;
76865;SDS011;66647;52.124;5.416;2023-05-23T08:22:18;9.75;;;0.38;;
76865;SDS011;66647;52.124;5.416;2023-05-23T08:24:44;7.07;;;0.57;;
76865;SDS011;66647;52.124;5.416;2023-05-23T08:27:13;6.90;;;0.35;;
76865;SDS011;66647;52.124;5.416;2023-05-23T08:29:41;6.75;;;0.82;;
76865;SDS011;66647;52.124;5.416;2023-05-23T08:32:08;8.07;;;0.40;;
76865;SDS011;66647;52.124;5.416;2023-05-23T08:34:34;6.72;;;0.40;;
76865;SDS011;66647;52.124;5.416;2023-05-23T08:37:02;9.38;;;0.43;;
76865;SDS011;66647;52.124;5.416;2023-05-23T08:39:44;9.55;;;0.40;;
76865;SDS011;66647;52.124;5.416;2023-05-23T08:42:41;10.93;;;0.43;;
76865;SDS011;66647;52.124;5.416;2023-05-23T08:45:10;8.18;;;0.63;;
76865;SDS011;66647;52.124;5.416;2023-05-23T08:47:50;9.23;;;0.52;;
76865;SDS011;66647;52.124;5.416;2023-05-23T08:50:19;7.97;;;1.27;;
76865;SDS011;66647;52.124;5.416;2023-05-23T08:58:11;9.00;;;0.45;;
76865;SDS011;66647;52.124;5.416;2023-05-23T09:00:45;7.78;;;0.60;;
76865;SDS011;66647;52.124;5.416;2023-05-23T09:03:28;10.40;;;0.57;;
76865;SDS011;66647;52.124;5.416;2023-05-23T09:06:19;7.13;;;0.45;;
76865;SDS011;66647;52.124;5.416;2023-05-23T09:08:47;10.45;;;0.80;;
76865;SDS011;66647;52.124;5.416;2023-05-23T09:14:36;10.18;;;0.43;;
76865;SDS011;66647;52.124;5.416;2023-05-23T09:17:06;7.95;;;0.38;;
76865;SDS011;66647;52.124;5.416;2023-05-23T09:19:51;6.13;;;0.50;;
76865;SDS011;66647;52.124;5.416;2023-05-23T09:22:31;4.80;;;0.50;;
76865;SDS011;66647;52.124;5.416;2023-05-23T09:25:08;9.73;;;0.93;;
76865;SDS011;66647;52.124;5.416;2023-05-23T09:27:40;9.57;;;0.85;;
76865;SDS011;66647;52.124;5.416;2023-05-23T09:30:12;9.43;;;0.73;;
76865;SDS011;66647;52.124;5.416;2023-05-23T09:32:39;10.55;;;0.90;;
76865;SDS011;66647;52.124;5.416;2023-05-23T09:35:21;10.52;;;0.30;;
76865;SDS011;66647;52.124;5.416;2023-05-23T09:37:52;14.10;;;0.70;;
76865;SDS011;66647;52.124;5.416;2023-05-23T09:40:28;9.57;;;0.43;;
76865;SDS011;66647;52.124;5.416;2023-05-23T09:43:14;9.35;;;0.55;;
76865;SDS011;66647;52.124;5.416;2023-05-23T09:48:54;6.13;;;0.52;;
76865;SDS011;66647;52.124;5.416;2023-05-23T09:51:38;6.82;;;0.40;;
76865;SDS011;66647;52.124;5.416;2023-05-23T09:54:08;6.95;;;0.60;;
76865;SDS011;66647;52.124;5.416;2023-05-23T09:56:36;6.10;;;0.70;;
76865;SDS011;66647;52.124;5.416;2023-05-23T09:59:06;6.72;;;0.30;;
76865;SDS011;66647;52.124;5.416;2023-05-23T10:01:37;6.75;;;0.32;;
76865;SDS011;66647;52.124;5.416;2023-05-23T10:04:05;7.03;;;0.82;;
76865;SDS011;66647;52.124;5.416;2023-05-23T10:09:44;9.18;;;0.60;;
76865;SDS011;66647;52.124;5.416;2023-05-23T10:15:04;7.95;;;1.23;;
76865;SDS011;66647;52.124;5.416;2023-05-23T10:17:44;6.80;;;1.45;;
76865;SDS011;66647;52.124;5.416;2023-05-23T10:20:19;6.57;;;0.65;;
76865;SDS011;66647;52.124;5.416;2023-05-23T10:22:51;8.52;;;0.85;;
76865;SDS011;66647;52.124;5.416;2023-05-23T10:25:21;6.13;;;0.60;;
76865;SDS011;66647;52.124;5.416;2023-05-23T10:27:48;10.52;;;0.80;;
76865;SDS011;66647;52.124;5.416;2023-05-23T10:30:20;6.32;;;0.77;;
76865;SDS011;66647;52.124;5.416;2023-05-23T10:32:47;11.10;;;0.93;;
76865;SDS011;66647;52.124;5.416;2023-05-23T10:38:23;7.43;;;0.32;;
76865;SDS011;66647;52.124;5.416;2023-05-23T10:41:24;9.85;;;0.60;;
76865;SDS011;66647;52.124;5.416;2023-05-23T10:43:56;8.18;;;0.93;;
76865;SDS011;66647;52.124;5.416;2023-05-23T10:49:43;4.63;;;0.32;;
76865;SDS011;66647;52.124;5.416;2023-05-23T10:52:17;9.30;;;1.30;;
76865;SDS011;66647;52.124;5.416;2023-05-23T10:54:45;4.07;;;0.43;;
76865;SDS011;66647;52.124;5.416;2023-05-23T10:57:24;8.00;;;0.57;;
76865;SDS011;66647;52.124;5.416;2023-05-23T10:59:54;8.65;;;0.40;;
76865;SDS011;66647;52.124;5.416;2023-05-23T11:02:25;7.13;;;0.45;;
76865;SDS011;66647;52.124;5.416;2023-05-23T11:11:10;7.57;;;0.43;;
76865;SDS011;66647;52.124;5.416;2023-05-23T11:16:30;6.10;;;0.50;;
76865;SDS011;66647;52.124;5.416;2023-05-23T11:21:44;4.95;;;0.40;;
76865;SDS011;66647;52.124;5.416;2023-05-23T11:24:14;8.68;;;0.93;;
76865;SDS011;66647;52.124;5.416;2023-05-23T11:26:58;8.43;;;0.47;;
76865;SDS011;66647;52.124;5.416;2023-05-23T11:29:26;6.65;;;0.98;;
76865;SDS011;66647;52.124;5.416;2023-05-23T11:31:54;6.18;;;0.32;;
76865;SDS011;66647;52.124;5.416;2023-05-23T11:34:24;5.20;;;0.55;;
76865;SDS011;66647;52.124;5.416;2023-05-23T11:36:52;5.35;;;0.22;;
76865;SDS011;66647;52.124;5.416;2023-05-23T11:39:19;8.07;;;0.60;;
76865;SDS011;66647;52.124;5.416;2023-05-23T11:41:57;10.18;;;0.30;;
76865;SDS011;66647;52.124;5.416;2023-05-23T11:44:24;3.60;;;0.50;;
76865;SDS011;66647;52.124;5.416;2023-05-23T11:46:58;6.32;;;0.65;;
76865;SDS011;66647;52.124;5.416;2023-05-23T11:49:29;7.90;;;0.30;;
76865;SDS011;66647;52.124;5.416;2023-05-23T11:51:57;7.72;;;0.60;;
76865;SDS011;66647;52.124;5.416;2023-05-23T11:54:40;4.85;;;0.50;;
76865;SDS011;66647;52.124;5.416;2023-05-23T11:57:09;4.63;;;0.20;;
76865;SDS011;66647;52.124;5.416;2023-05-23T11:59:38;3.97;;;0.52;;
76865;SDS011;66647;52.124;5.416;2023-05-23T12:05:06;8.55;;;0.30;;
76865;SDS011;66647;52.124;5.416;2023-05-23T12:07:39;8.50;;;0.40;;
76865;SDS011;66647;52.124;5.416;2023-05-23T12:10:11;5.90;;;0.75;;
76865;SDS011;66647;52.124;5.416;2023-05-23T12:12:40;5.35;;;1.20;;
76865;SDS011;66647;52.124;5.416;2023-05-23T12:15:08;6.22;;;0.38;;
76865;SDS011;66647;52.124;5.416;2023-05-23T12:17:37;4.68;;;0.50;;
76865;SDS011;66647;52.124;5.416;2023-05-23T12:20:04;5.28;;;0.20;;
76865;SDS011;66647;52.124;5.416;2023-05-23T12:22:32;4.93;;;0.43;;
76865;SDS011;66647;52.124;5.416;2023-05-23T12:24:58;5.55;;;0.40;;
76865;SDS011;66647;52.124;5.416;2023-05-23T12:27:26;5.57;;;0.38;;
76865;SDS011;66647;52.124;5.416;2023-05-23T12:30:04;4.88;;;0.55;;
76865;SDS011;66647;52.124;5.416;2023-05-23T12:32:32;6.47;;;0.50;;
76865;SDS011;66647;52.124;5.416;2023-05-23T12:34:59;4.68;;;0.30;;
76865;SDS011;66647;52.124;5.416;2023-05-23T12:37:25;6.38;;;0.35;;
76865;SDS011;66647;52.124;5.416;2023-05-23T12:39:52;5.50;;;0.60;;
76865;SDS011;66647;52.124;5.416;2023-05-23T12:42:19;8.75;;;0.52;;
76865;SDS011;66647;52.124;5.416;2023-05-23T12:44:49;5.60;;;0.50;;
76865;SDS011;66647;52.124;5.416;2023-05-23T12:47:17;3.50;;;0.22;;
76865;SDS011;66647;52.124;5.416;2023-05-23T12:49:44;4.63;;;0.90;;
76865;SDS011;66647;52.124;5.416;2023-05-23T12:52:12;6.03;;;0.32;;
76865;SDS011;66647;52.124;5.416;2023-05-23T12:54:38;4.50;;;0.30;;
76865;SDS011;66647;52.124;5.416;2023-05-23T12:57:05;6.15;;;0.30;;
76865;SDS011;66647;52.124;5.416;2023-05-23T12:59:32;3.92;;;0.50;;
76865;SDS011;66647;52.124;5.416;2023-05-23T13:02:03;7.78;;;0.40;;
76865;SDS011;66647;52.124;5.416;2023-05-23T13:04:32;4.03;;;0.43;;
76865;SDS011;66647;52.124;5.416;2023-05-23T13:06:59;6.50;;;0.70;;
76865;SDS011;66647;52.124;5.416;2023-05-23T13:09:26;8.68;;;0.43;;
76865;SDS011;66647;52.124;5.416;2023-05-23T13:11:53;7.65;;;0.60;;
76865;SDS011;66647;52.124;5.416;2023-05-23T13:14:20;6.35;;;0.20;;
76865;SDS011;66647;52.124;5.416;2023-05-23T13:16:47;7.03;;;0.45;;
76865;SDS011;66647;52.124;5.416;2023-05-23T13:19:14;6.90;;;0.47;;
76865;SDS011;66647;52.124;5.416;2023-05-23T13:21:41;8.82;;;0.20;;
76865;SDS011;66647;52.124;5.416;2023-05-23T13:24:11;8.32;;;0.30;;
76865;SDS011;66647;52.124;5.416;2023-05-23T13:26:52;5.75;;;0.70;;
76865;SDS011;66647;52.124;5.416;2023-05-23T13:29:18;6.47;;;0.63;;
76865;SDS011;66647;52.124;5.416;2023-05-23T13:31:52;5.03;;;0.40;;
76865;SDS011;66647;52.124;5.416;2023-05-23T13:34:35;7.35;;;0.73;;
76865;SDS011;66647;52.124;5.416;2023-05-23T13:37:10;7.90;;;0.65;;
76865;SDS011;66647;52.124;5.416;2023-05-23T13:42:22;8.10;;;0.40;;
76865;SDS011;66647;52.124;5.416;2023-05-23T13:44:49;9.10;;;0.55;;
76865;SDS011;66647;52.124;5.416;2023-05-23T13:47:16;5.03;;;0.70;;
76865;SDS011;66647;52.124;5.416;2023-05-23T13:49:42;6.30;;;0.20;;
76865;SDS011;66647;52.124;5.416;2023-05-23T13:52:11;5.63;;;0.75;;
76865;SDS011;66647;52.124;5.416;2023-05-23T13:54:55;5.72;;;0.30;;
76865;SDS011;66647;52.124;5.416;2023-05-23T13:57:22;2.45;;;0.10;;
76865;SDS011;66647;52.124;5.416;2023-05-23T13:59:49;3.65;;;0.30;;
76865;SDS011;66647;52.124;5.416;2023-05-23T14:02:16;5.47;;;0.17;;
76865;SDS011;66647;52.124;5.416;2023-05-23T14:04:43;3.70;;;0.10;;
76865;SDS011;66647;52.124;5.416;2023-05-23T14:10:02;5.05;;;0.20;;
76865;SDS011;66647;52.124;5.416;2023-05-23T14:12:34;3.35;;;0.30;;
76865;SDS011;66647;52.124;5.416;2023-05-23T14:15:01;3.72;;;0.15;;
76865;SDS011;66647;52.124;5.416;2023-05-23T14:17:28;3.85;;;0.43;;
76865;SDS011;66647;52.124;5.416;2023-05-23T14:20:20;6.25;;;0.20;;
76865;SDS011;66647;52.124;5.416;2023-05-23T14:22:48;4.65;;;0.30;;
76865;SDS011;66647;52.124;5.416;2023-05-23T14:25:16;4.88;;;0.20;;
76865;SDS011;66647;52.124;5.416;2023-05-23T14:27:43;7.60;;;0.35;;
76865;SDS011;66647;52.124;5.416;2023-05-23T14:30:11;5.65;;;0.35;;
76865;SDS011;66647;52.124;5.416;2023-05-23T14:32:38;3.85;;;0.22;;
76865;SDS011;66647;52.124;5.416;2023-05-23T14:35:05;4.38;;;0.55;;
76865;SDS011;66647;52.124;5.416;2023-05-23T14:37:33;7.22;;;0.30;;
76865;SDS011;66647;52.124;5.416;2023-05-23T14:40:03;4.90;;;0.80;;
76865;SDS011;66647;52.124;5.416;2023-05-23T14:42:46;6.13;;;0.60;;
76865;SDS011;66647;52.124;5.416;2023-05-23T14:48:05;4.40;;;0.45;;
76865;SDS011;66647;52.124;5.416;2023-05-23T14:50:32;6.00;;;0.52;;
76865;SDS011;66647;52.124;5.416;2023-05-23T14:52:58;6.45;;;0.22;;
76865;SDS011;66647;52.124;5.416;2023-05-23T14:55:25;4.82;;;0.20;;
76865;SDS011;66647;52.124;5.416;2023-05-23T14:57:54;6.28;;;0.52;;
76865;SDS011;66647;52.124;5.416;2023-05-23T15:00:23;7.40;;;0.75;;
76865;SDS011;66647;52.124;5.416;2023-05-23T15:02:50;8.50;;;0.40;;
76865;SDS011;66647;52.124;5.416;2023-05-23T15:05:20;5.95;;;0.30;;
76865;SDS011;66647;52.124;5.416;2023-05-23T15:07:50;4.75;;;0.30;;
76865;SDS011;66647;52.124;5.416;2023-05-23T15:10:17;4.88;;;0.25;;
76865;SDS011;66647;52.124;5.416;2023-05-23T15:12:44;6.03;;;0.20;;
76865;SDS011;66647;52.124;5.416;2023-05-23T15:15:10;6.05;;;0.43;;
76865;SDS011;66647;52.124;5.416;2023-05-23T15:17:37;5.78;;;0.20;;
76865;SDS011;66647;52.124;5.416;2023-05-23T15:20:04;2.90;;;0.45;;
76865;SDS011;66647;52.124;5.416;2023-05-23T15:22:33;4.88;;;0.25;;
76865;SDS011;66647;52.124;5.416;2023-05-23T15:25:05;6.53;;;0.30;;
76865;SDS011;66647;52.124;5.416;2023-05-23T15:27:35;3.70;;;0.20;;
76865;SDS011;66647;52.124;5.416;2023-05-23T15:30:02;5.00;;;0.30;;
76865;SDS011;66647;52.124;5.416;2023-05-23T15:32:29;3.42;;;0.20;;
76865;SDS011;66647;52.124;5.416;2023-05-23T15:34:56;5.50;;;0.43;;
76865;SDS011;66647;52.124;5.416;2023-05-23T15:37:22;3.78;;;0.20;;
76865;SDS011;66647;52.124;5.416;2023-05-23T15:39:49;6.93;;;0.65;;
76865;SDS011;66647;52.124;5.416;2023-05-23T15:42:16;4.82;;;0.30;;
76865;SDS011;66647;52.124;5.416;2023-05-23T15:44:42;6.43;;;0.55;;
76865;SDS011;66647;52.124;5.416;2023-05-23T15:47:09;4.93;;;0.30;;
76865;SDS011;66647;52.124;5.416;2023-05-23T15:49:35;4.80;;;0.30;;
76865;SDS011;66647;52.124;5.416;2023-05-23T15:52:02;4.88;;;0.20;;
76865;SDS011;66647;52.124;5.416;2023-05-23T15:54:29;5.00;;;0.10;;
76865;SDS011;66647;52.124;5.416;2023-05-23T15:56:55;6.32;;;0.30;;
76865;SDS011;66647;52.124;5.416;2023-05-23T15:59:22;5.88;;;0.38;;
76865;SDS011;66647;52.124;5.416;2023-05-23T16:01:48;6.75;;;0.40;;
76865;SDS011;66647;52.124;5.416;2023-05-23T16:04:16;5.97;;;0.25;;
76865;SDS011;66647;52.124;5.416;2023-05-23T16:06:43;9.90;;;1.00;;
76865;SDS011;66647;52.124;5.416;2023-05-23T16:09:10;6.68;;;0.20;;
76865;SDS011;66647;52.124;5.416;2023-05-23T16:11:36;5.18;;;0.30;;
76865;SDS011;66647;52.124;5.416;2023-05-23T16:14:03;5.35;;;0.38;;
76865;SDS011;66647;52.124;5.416;2023-05-23T16:16:29;8.10;;;0.25;;
76865;SDS011;66647;52.124;5.416;2023-05-23T16:18:58;6.05;;;0.65;;
76865;SDS011;66647;52.124;5.416;2023-05-23T16:21:25;9.98;;;0.50;;
76865;SDS011;66647;52.124;5.416;2023-05-23T16:23:51;3.92;;;0.20;;
76865;SDS011;66647;52.124;5.416;2023-05-23T16:26:18;5.00;;;0.40;;